MOTOCROSSTIME - MXGP RESULTS


MXGP RESULTS

Pos Nr Rider Nat. Fed. Bike Time laps Diff. First Diff. Prev. Bestlaptime in lap Speed
1 222 Cairoli, Antonio ITA FMI KTM 35:28.572 18 0:00.000 0:00.000 1:51.078 6 52.8
2 84 Herlings, Jeffrey NED KNMV KTM 35:30.340 18 0:01.768 0:01.768 1:50.728 12 52.9
3 27 Jasikonis, Arminas LTU LMSF Suzuki 36:07.316 18 0:38.744 0:36.976 1:53.446 10 51.7
4 461 Febvre, Romain FRA FFM Yamaha 36:13.465 18 0:44.893 0:06.149 1:53.872 9 51.5
5 12 Nagl, Maximilian GER DMSB Husqvarna 36:14.792 18 0:46.220 0:01.327 1:53.092 5 51.8
6 243 Gajser, Tim SLO AMZS Honda 36:17.266 18 0:48.694 0:02.474 1:53.037 5 51.9
7 4 Tonus, Arnaud SUI FMS Yamaha 36:23.071 18 0:54.499 0:05.805 1:53.761 6 51.5
8 99 Anstie, Max GBR ACU Husqvarna 36:24.691 18 0:56.119 0:01.620 1:54.508 9 51.2
9 777 Bobryshev, Evgeny RUS MFR Honda 36:28.694 18 1:00.122 0:04.003 1:54.300 11 51.3
10 25 Desalle, Clement BEL FMB Kawasaki 36:30.174 18 1:01.602 0:01.480 1:54.261 9 51.3
11 21 Paulin, Gautier FRA MCM Husqvarna 36:35.521 18 1:06.949 0:05.347 1:55.210 16 50.9
12 7 Leok, Tanel EST EMF Husqvarna 36:42.474 18 1:13.902 0:06.953 1:54.703 6 51.1
13 77 Lupino, Alessandro ITA FMI Honda 36:47.525 18 1:18.953 0:05.051 1:54.659 13 51.1
14 259 Coldenhoff, Glenn NED KNMV KTM 37:05.494 18 1:36.922 0:17.969 1:55.064 6 50.9
15 141 Desprey, Maxime FRA FFM Kawasaki 37:12.046 18 1:43.474 0:06.552 1:55.243 8 50.9
16 999 Goncalves, Rui POR FMP Husqvarna 37:21.380 18 1:52.808 0:09.334 1:56.312 7 50.4
17 17 Butron, Jose ESP RFME KTM 35:38.073 17 1 lap 1 lap 1:56.597 6 50.3
18 9 de Dycker, Ken BEL FMB Honda 35:49.729 17 1 lap 0:11.656 1:56.609 6 50.3
19 909 Neurauter, Lukas AUT OeAMTC KTM 35:54.367 17 1 lap 0:04.638 1:58.236 4 49.6
20 38 Peixe, Sandro POR FMP Honda 36:37.334 17 1 lap 0:42.967 2:00.846 4 48.5
21 119 Houghton, Ryan GBR ACU Yamaha 36:52.715 17 1 lap 0:15.381 1:59.865 4 48.9
22 89 Van Horebeek, Jeremy BEL FMB Yamaha 15:27.775 7 11 laps 10 laps 1:55.341 4 50.8
23 71 Graulus, Damon BEL FMB Honda 8:01.541 3 15 laps 4 laps 2:02.465 2 47.9
24 212 Dewulf, Jeffrey BEL FMB KTM 0:00.000 -1 19 laps 4 laps 0:00.000   0

 

MX2 RESULTS

Pos Nr Rider Nat. Fed. Bike Time laps Diff. First Diff. Prev. Bestlaptime in lap Speed
1 91 Seewer, Jeremy SUI FMS Suzuki 34:25.343 17 0:00.000 0:00.000 1:53.911 9 51.5
2 41 Jonass, Pauls LAT LAMSF KTM 34:29.243 17 0:03.900 0:03.900 1:54.275 7 51.3
3 64 Covington, Thomas USA MUL Husqvarna 34:48.739 17 0:23.396 0:19.496 1:55.508 8 50.8
4 6 Paturel, Benoit FRA FFM Yamaha 34:52.445 17 0:27.102 0:03.706 1:55.084 7 50.9
5 19 Olsen, Thomas Kjer DEN DMU Husqvarna 35:04.756 17 0:39.413 0:12.311 1:56.071 6 50.5
6 189 Bogers, Brian NED KNMV KTM 35:13.636 17 0:48.293 0:08.880 1:56.384 8 50.4
7 172 Van doninck, Brent BEL FMB Yamaha 35:18.298 17 0:52.955 0:04.662 1:56.303 12 50.4
8 127 Rodriguez, Anthony VEN FMV Honda 35:22.741 17 0:57.398 0:04.443 1:57.514 10 49.9
9 747 Cervellin, Michele ITA FMI Honda 35:29.460 17 1:04.117 0:06.719 1:57.531 7 49.9
10 338 Herbreteau, David FRA FFM Kawasaki 35:31.295 17 1:05.952 0:01.835 1:57.602 7 49.8
11 66 Larranaga Olano, Iker ESP RFME Husqvarna 35:34.953 17 1:09.610 0:03.658 1:56.851 8 50.2
12 161 Östlund, Alvin SWE SVEMO Yamaha 35:38.467 17 1:13.124 0:03.514 1:57.586 8 49.9
13 29 Jacobi, Henry GER DMSB Husqvarna 36:07.304 17 1:41.961 0:28.837 1:57.938 8 49.7
14 107 van Berkel, Lars NED KNMV KTM 36:09.194 17 1:43.851 0:01.890 1:59.521 17 49
15 297 Gole, Anton SWE SVEMO TM 36:26.375 17 2:01.032 0:17.181 2:00.135 6 48.8
16 83 Renkens, Nathan BEL FMB KTM 36:33.271 17 2:07.928 0:06.896 2:00.711 3 48.6
17 95 De Waal, Micha-Boy NED KNMV Honda 34:28.418 16 1 lap 1 lap 1:59.093 11 49.2
18 98 Vaessen, Bas NED KNMV Suzuki 34:40.000 16 1 lap 0:11.582 1:58.892 4 49.3
19 426 Mewse, Conrad GBR ACU Husqvarna 34:53.911 16 1 lap 0:13.911 1:57.900 2 49.7
20 199 Zaragoza, Jorge ESP RFME Yamaha 35:25.972 16 1 lap 0:32.061 2:01.858 5 48.1
21 67 Klingsheim, Magne NOR NMF Kawasaki 36:30.201 16 1 lap 1:04.229 2:01.637 4 48.2
22 146 Carvalho, Pedro POR FMP Yamaha 35:55.141 15 2 laps 1 lap 2:03.200 3 47.6
23 33 Lieber, Julien BEL FMB KTM 26:01.474 12 5 laps 3 laps 1:56.290 9 50.4
24 919 Watson, Ben GBR ACU KTM 19:38.234 9 8 laps 3 laps 1:57.549 4 49.9
25 118 Rubini, Stephen FRA FFM Kawasaki 16:44.669 7 10 laps 2 laps 1:58.389 5 49.5

 

EMX125 RESULTS

Pos Nr Rider Nat. Fed. Bike Time laps Diff. First Diff. Prev. Bestlaptime in lap Speed
1 22 Facchetti, Gianluca ITA FMI Husqvarna 29:48.849 14 0:00.000 0:00.000 1:58.136 11 49.6
2 225 Strubhart Moreau, Brian FRA FFM KTM 29:53.763 14 0:04.914 0:04.914 1:58.424 1 49.5
3 24 Horgmo, Kevin NOR NMF KTM 29:56.381 14 0:07.532 0:02.618 1:59.287 11 49.1
4 722 Haarup, Mikkel DEN DMU Husqvarna 30:09.939 14 0:21.090 0:13.558 1:59.699 12 49
5 711 Hofer, Rene AUT OeAMTC KTM 30:20.276 14 0:31.427 0:10.337 1:59.591 8 49
6 228 Scuteri, Emilio ITA FMI KTM 30:21.017 14 0:32.168 0:00.741 2:00.432 8 48.7
7 10 Dankers, Raivo NED KNMV KTM 30:23.897 14 0:35.048 0:02.880 2:00.811 13 48.5
8 88 Notario, Sergi ESP RFME KTM 30:29.794 14 0:40.945 0:05.897 2:01.566 4 48.2
9 313 Polak, Petr CZE ACCR KTM 30:34.053 14 0:45.204 0:04.259 2:01.437 6 48.3
10 810 Crnjanski, Yann FRA FFM KTM 30:36.922 14 0:48.073 0:02.869 2:01.111 6 48.4
11 110 Puccinelli, Matteo ITA FMI KTM 30:38.244 14 0:49.395 0:01.322 2:01.590 7 48.2
12 101 Guadagnini, Mattia ITA FMI TM 30:39.306 14 0:50.457 0:01.062 2:01.699 14 48.2
13 16 Edberg, Tim SWE SVEMO Yamaha 30:46.057 14 0:57.208 0:06.751 2:01.699 6 48.2
14 19 Zanotti, Andrea SMR FSM KTM 30:46.555 14 0:57.706 0:00.498 2:00.722 7 48.6
15 50 Lugana, Paolo ITA FMI TM 30:46.641 14 0:57.792 0:00.086 2:01.801 14 48.1
16 14 Sydow, Jeremy GER DMSB KTM 30:51.453 14 1:02.604 0:04.812 2:01.828 11 48.1
17 81 Meuwissen, Raf NED KNMV KTM 30:58.556 14 1:09.707 0:07.103 2:01.998 4 48
18 211 Fonvieille, Calvin FRA FFM KTM 31:03.144 14 1:14.295 0:04.588 2:01.544 2 48.2
19 99 Elzinga, Rick NED KNMV Yamaha 31:04.613 14 1:15.764 0:01.469 2:02.554 12 47.8
20 294 Facca, Alessandro ITA FMI KTM 31:06.242 14 1:17.393 0:01.629 2:02.440 7 47.9
21 125 Weckman, Emil FIN SML KTM 31:08.449 14 1:19.600 0:02.207 2:03.053 8 47.6
22 71 Mills, Christopher GBR ACU Yamaha 31:18.267 14 1:29.418 0:09.818 2:03.551 6 47.4
23 100 Verhaeghe, Scotty FRA FFM KTM 31:38.506 14 1:49.657 0:20.239 2:03.544 14 47.4
24 98 Benistant, Thibault FRA FFM Yamaha 31:38.674 14 1:49.825 0:00.168 2:03.145 6 47.6
25 239 Lion, Florian GER DMSB KTM 31:45.068 14 1:56.219 0:06.394 2:02.767 11 47.7
26 11 Manucci, Alessandro ITA FMI Husqvarna 30:02.656 13 1 lap 1 lap 2:04.924 10 46.9
27 4 Stauffer, Marcel AUT OeAMTC KTM 30:04.849 13 1 lap 0:02.193 2:01.621 4 48.2
28 172 Ubach Sala, Salvador ESP RFME Husqvarna 30:16.671 13 1 lap 0:11.822 2:07.657 7 45.9
29 180 Ambjörnson, Leopold SWE SVEMO KTM 30:17.962 13 1 lap 0:01.291 2:07.032 8 46.1
30 12 Bouwense, Mack NED KNMV KTM 30:20.546 13 1 lap 0:02.584 2:08.321 3 45.7
31 292 Gamboa Montero , Alex ESP RFME Yamaha 30:22.671 13 1 lap 0:02.125 2:07.954 3 45.8
32 460 Adam, Lucas BEL FMB Yamaha 30:22.912 13 1 lap 0:00.241 2:08.594 8 45.6
33 77 Bintcliffe, Jack GBR ACU KTM 30:27.484 13 1 lap 0:04.572 2:08.233 9 45.7
34 237 Ramella, Xylian SUI FMS KTM 30:53.855 13 1 lap 0:26.371 2:08.835 8 45.5
35 25 Del Coco, Matteo ITA FMI Husqvarna 30:55.822 13 1 lap 0:01.967 2:08.842 3 45.5
36 91 Gwerder, Mike SUI FMS KTM 31:11.033 13 1 lap 0:15.211 2:04.919 7 46.9
37 284 Tomas, Eric ESP RFME KTM 31:24.028 13 1 lap 0:12.995 2:08.573 11 45.6
38 517 Gifting, Isak SWE SVEMO KTM 25:20.948 11 3 laps 2 laps 2:00.092 7 48.8
39 18 Hauquier, Jeremy FRA FFM KTM 19:01.038 8 6 laps 3 laps 2:05.969 5 46.5
40 312 Oliver, Oriol ESP RFME Kawasaki 10:36.327 4 10 laps 4 laps 2:06.647 3 46.3

 

EMX250 RESULTS

Pos Nr Rider Nat. Fed. Bike Time laps Diff. First Diff. Prev. Bestlaptime in lap Speed
1 60 Charboneau, Tristan USA FFM Kawasaki 30:50.128 15 0:00.000 0:00.000 1:55.961 5 50.6
2 957 Furlotti, Simone ITA FMI Yamaha 30:54.587 15 0:04.459 0:04.459 1:54.880 5 51
3 73 Weltin, Marshal USA AMA Kawasaki 31:11.636 15 0:21.508 0:17.049 1:56.553 13 50.3
4 172 Boisrame, Mathys FRA FFM Honda 31:12.689 15 0:22.561 0:01.053 1:56.483 6 50.3
5 70 Fernandez, Ruben ESP RFME Kawasaki 31:13.255 15 0:23.127 0:00.566 1:56.486 3 50.3
6 303 Forato, Alberto ITA FMI Honda 31:17.566 15 0:27.438 0:04.311 1:56.323 13 50.4
7 93 Geerts, Jago BEL FMB KTM 31:23.008 15 0:32.880 0:05.442 1:56.734 13 50.2
8 720 Goupillon, Pierre FRA FFM KTM 31:31.413 15 0:41.285 0:08.405 1:57.819 5 49.8
9 16 Sabulis, Karlis LAT LAMSF Yamaha 31:36.331 15 0:46.203 0:04.918 1:57.222 7 50
10 51 Malaval, Adrien FRA FFM Husqvarna 31:42.419 15 0:52.291 0:06.088 1:58.334 15 49.5
11 253 Pancar, Jan SLO AMZS Yamaha 31:44.443 15 0:54.315 0:02.024 1:57.447 15 49.9
12 44 Lesiardo, Morgan ITA FMI Kawasaki 31:52.860 15 1:02.732 0:08.417 1:59.260 3 49.2
13 262 Stender, Mike GER DMSB Suzuki 31:58.646 15 1:08.518 0:05.786 1:58.080 5 49.6
14 80 Bengtson, Ken SWE SVEMO Yamaha 32:10.285 15 1:20.157 0:11.639 1:59.167 5 49.2
15 26 Koch, Tom GER DMSB KTM 32:12.459 15 1:22.331 0:02.174 1:59.602 13 49
16 403 Boegh Damm, Bastian DEN DMU Kawasaki 32:19.310 15 1:29.182 0:06.851 2:00.106 13 48.8
17 485 Savaste, Kim FIN SML Kawasaki 32:22.792 15 1:32.664 0:03.482 1:59.794 6 48.9
18 37 Quarti, Yuri ITA FMI KTM 32:27.567 15 1:37.439 0:04.775 2:01.063 3 48.4
19 142 Haavisto, Jere FIN SML KTM 32:28.466 15 1:38.338 0:00.899 1:58.905 15 49.3
20 722 Mantovani, Michael ITA FMI Yamaha 32:28.985 15 1:38.857 0:00.519 2:00.205 6 48.8
21 12 Casas Cervera, Oriol ESP RFME Yamaha 32:43.934 15 1:53.806 0:14.949 2:00.114 7 48.8
22 41 Grothues, Caleb AUS DMSB Husqvarna 32:46.084 15 1:55.956 0:02.150 2:00.778 5 48.5
23 7 Bussot, Nil ESP RFME Husqvarna 32:47.838 15 1:57.710 0:01.754 2:01.749 6 48.1
24 911 Kytonen, Roni FIN SML KTM 30:53.075 14 1 lap 1 lap 2:01.304 8 48.3
25 39 Van De Moosdijk, Roan NED KNMV Yamaha 30:55.215 14 1 lap 0:02.140 1:57.461 4 49.9
26 71 Karka, Dovydas LTU LMSF KTM 31:26.641 14 1 lap 0:31.426 2:02.843 2 47.7
27 151 Castro, Sergio ESP RFME Kawasaki 31:35.356 14 1 lap 0:08.715 2:04.118 6 47.2
28 32 Conijn, Marcel NED KNMV Kawasaki 31:53.602 14 1 lap 0:18.246 2:01.623 1 48.2
29 207 Charrua, Bruno POR FMP Yamaha 32:11.984 14 1 lap 0:18.382 2:05.462 5 46.7
30 772 Sergio, Andre POR FMP Yamaha 32:26.688 14 1 lap 0:14.704 2:06.436 5 46.4
31 276 Rosell Romero, Joan David ESP RFME Yamaha 31:39.743 13 2 laps 1 lap 2:07.260 5 46.1
32 271 Ferdandez Garcia, Sergio ESP RFME Honda 25:31.637 10 5 laps 3 laps 2:04.607 5 47
33 211 Lapucci, Nicholas ITA FMI KTM 20:56.316 9 6 laps 1 lap 1:57.703 6 49.8
34 147 Sihvonen, Miro FIN SML KTM 17:51.198 8 7 laps 1 lap 1:58.096 3 49.6
35 644 Kouwenberg, Nick NED KNMV Yamaha 16:04.527 7 8 laps 1 lap 1:59.905 5 48.9
36 98 Kellett, Todd GBR ACU Husqvarna 9:49.905 4 11 laps 3 laps 1:58.328 2 49.5
37 766 Sandner, Michael AUT OeAMTC KTM 3:46.406 1 14 laps 3 laps 1:58.984 1 49.3
38 40 Zecchina, Simone ITA FMI Yamaha 3:48.304 1 14 laps 0:01.898 2:00.839 1 48.5
39 30 De Jong, Rene NED KNMV KTM 3:58.876 1 14 laps 0:10.572 2:03.217 1 47.6
40 52 Walsh, Dylan GBR MNZ Honda 4:10.355 0 15 laps 1 lap 0:00.000   0

 

EMX150 RESULTS

Pos Nr Rider Nat. Fed. Bike Time laps Diff. First Diff. Prev. Bestlaptime in lap Speed
1 66 Nordström Graaf, Anton SWE SVEMO Honda 24:46.312 10 0:00.000 0:00.000 2:14.142 10 43.7
2 47 Outeiro, Luis POR FMP Honda 24:55.721 10 0:09.409 0:09.409 2:13.580 9 43.9
3 10 Adamo, Andrea ITA FMI Honda 25:20.762 10 0:34.450 0:25.041 2:15.342 4 43.3
4 11 Stuurman, Kjeld NED KNMV Honda 25:29.238 10 0:42.926 0:08.476 2:18.175 3 42.4
5 48 Kishi, Toa JPN MFJ Honda 25:35.396 10 0:49.084 0:06.158 2:17.879 9 42.5
6 84 Valk, Lynn NED KNMV Honda 25:42.125 10 0:55.813 0:06.729 2:19.348 3 42.1
7 64 Malinov, Nikolay BUL BMF Honda 25:49.490 10 1:03.178 0:07.365 2:17.897 3 42.5
8 18 Vassgaard, Magnus NOR NMF Honda 26:05.475 10 1:19.163 0:15.985 2:21.336 6 41.5
9 31 van de Bunte, Milan NED KNMV Honda 26:31.267 10 1:44.955 0:25.792 2:24.952 2 40.4
10 7 Moen, Rasmus SWE SVEMO Honda 26:36.898 10 1:50.586 0:05.631 2:22.265 10 41.2
11 37 Rocha, Frederico POR FMP Honda 26:37.724 10 1:51.412 0:00.826 2:22.311 8 41.2
12 94 Hermans, Senne BEL FMB Honda 26:52.258 10 2:05.946 0:14.534 2:25.301 3 40.3
13 19 Ferreira, Ruben POR FMP Honda 24:55.015 9 1 lap 1 lap 2:28.863 6 39.4
14 95 Hermans, Rune BEL FMB Honda 25:19.363 9 1 lap 0:24.348 2:31.671 6 38.6
15 35 Bijtjes, Boaz NED KNMV Honda 25:24.152 9 1 lap 0:04.789 2:31.577 7 38.7
16 63 Honda, Shiaru JPN MFJ Honda 25:27.574 9 1 lap 0:03.422 2:26.185 9 40.1
17 5 Youngberry, Marcus AUS MA Honda 25:32.866 9 1 lap 0:05.292 2:28.799 8 39.4
18 15 Mawhinney, Ryan GBR MCUI Honda 25:36.752 9 1 lap 0:03.886 2:20.390 3 41.7
19 77 Sammut, Tobias GBR ACU Honda 25:38.843 9 1 lap 0:02.091 2:28.965 8 39.3
20 72 Roca, Oriol ESP RFME Honda 25:46.000 9 1 lap 0:07.157 2:35.729 7 37.6
21 13 McCarthy, Charlie IRL MCUI Honda 26:35.981 9 1 lap 0:49.981 2:36.553 2 37.4
22 21 Kessen , Nyls BEL FMB Honda 27:00.954 9 1 lap 0:24.973 2:33.839 2 38.1
23 44 Alves, Tomas PER FMP Honda 27:10.097 9 1 lap 0:09.143 2:40.056 4 36.6
24 8 Dominguez, Yago ESP RFME Honda 27:34.355 9 1 lap 0:24.258 2:31.506 7 38.7
25 55 Ritrovato, Wannes BEL FMB Honda 25:03.624 8 2 laps 1 lap 2:45.527 3 35.4
26 50 Rosell, Carles ESP RFME Honda 25:06.877 8 2 laps 0:03.253 2:37.995 2 37.1
27 17 Chetcuti, Teo SUI FMS Honda 26:06.614 7 3 laps 1 lap 2:59.130 4 32.7
28 68 Nordström Graaf, Ville SWE SVEMO Honda 8:37.560 2 8 laps 5 laps 3:10.924 1 30.7
29 70 Boet, Pol ESP RFME Honda 5:51.669 1 9 laps 1 lap 3:03.007 1 32

 

Loading...